Flight Track Log - Related Links

Times and Time Zones

All times are in EDT time to prevent confusion due to time zone crossing. See the SWA1035 flight status page for this flight to view local times or setup timezone preferences in your user account.

Time Position Orientation Groundspeed Altitude Reporting Facility
EDT Latitude Longitude Course Direction KTS MPH feet Rate Location/Type
Tue 02:19:07 PM 39.3000 -94.7333 195° South 172 198 1,800  Level Kansas City TRACON
Tue 02:19:35 PM 39.2764 -94.7414 195° South 157 181 2,300 1,867 Climbing Kansas City Center
Tue 02:20:37 PM 39.2533 -94.8042 245° Southwest 214 246 4,600 2,710 Climbing Kansas City Center
Tue 02:21:39 PM 39.2458 -94.9086 265° West 263 303 7,900 3,000 Climbing Kansas City Center
Tue 02:22:41 PM 39.2383 -95.0061 264° West 284 327 10,800 3,242 Climbing Kansas City Center
Tue 02:23:43 PM 39.2292 -95.1486 265° West 347 399 14,600 3,435 Climbing Kansas City Center
Tue 02:24:45 PM 39.2203 -95.2764 265° West 357 411 17,900 3,000 Climbing Kansas City Center
Tue 02:25:47 PM 39.2083 -95.4233 264° West 384 442 20,800 2,780 Climbing Kansas City Center
Tue 02:26:48 PM 39.1922 -95.5631 262° West 393 452 23,600 2,537 Climbing Kansas City Center
Tue 02:27:50 PM 39.1750 -95.6992 261° West 403 464 26,000 2,323 Climbing Kansas City Center
Tue 02:28:52 PM 39.1558 -95.8642 262° West 418 481 28,400 2,274 Climbing Kansas City Center
Tue 02:29:54 PM 39.1386 -96.0058 261° West 419 482 30,700 2,177 Climbing Kansas City Center
Tue 02:30:56 PM 39.1211 -96.1453 261° West 413 475 32,900 1,597 Climbing Kansas City Center
Tue 02:31:58 PM 39.1003 -96.3050 261° West 407 468 34,000 585 Climbing Kansas City Center
Tue 02:32:59 PM 39.0833 -96.4442 261° West 410 472 34,100 976 Climbing Kansas City Center
Tue 02:34:01 PM 39.0533 -96.6039 256° West 412 474 36,000 1,306 Climbing Kansas City Center
Tue 02:35:03 PM 39.0169 -96.7389 251° West 416 479 36,800 968 Climbing Kansas City Center
Tue 02:36:05 PM 38.9817 -96.8819 252° West 419 482 38,000 581 Climbing Kansas City Center
Tue 02:37:07 PM 38.9439 -97.0264 251° West 425 489 38,000  Level Kansas City Center
Tue 02:38:09 PM 38.9081 -97.1681 252° West 420 483 38,000  Level Kansas City Center
Tue 02:39:10 PM 38.8639 -97.3383 252° West 420 483 38,000 146 Level Kansas City Center
Tue 02:40:12 PM 38.8269 -97.4803 252° West 421 484 38,300 581 Climbing Kansas City Center
Tue 02:41:14 PM 38.7867 -97.6261 251° West 420 483 39,200 823 Climbing Kansas City Center
Tue 02:42:16 PM 38.7511 -97.7642 252° West 425 489 40,000 387 Climbing Kansas City Center
Tue 02:43:18 PM 38.7136 -97.9094 252° West 430 495 40,000  Level Kansas City Center
Tue 02:44:20 PM 38.6753 -98.0533 251° West 430 495 40,000  Level Kansas City Center
Tue 02:45:21 PM 38.6286 -98.2272 251° West 433 498 40,000  Level Kansas City Center
Tue 02:46:23 PM 38.5894 -98.3714 251° West 433 498 40,000  Level Kansas City Center
Tue 02:47:25 PM 38.5508 -98.5150 251° West 431 496 40,000  Level Kansas City Center
Tue 02:48:27 PM 38.5097 -98.6628 250° West 430 495 40,000  Level Kansas City Center
Tue 02:49:29 PM 38.4722 -98.8017 251° West 428 493 40,000  Level Kansas City Center
Tue 02:50:30 PM 38.4339 -98.9444 251° West 427 491 40,000  Level Kansas City Center
Tue 02:51:32 PM 38.3856 -99.1139 250° West 426 490 40,000  Level Kansas City Center
Tue 02:52:34 PM 38.3467 -99.2547 251° West 424 488 40,000  Level Kansas City Center
Tue 02:53:36 PM 38.3069 -99.3933 250° West 419 482 40,000  Level Kansas City Center
Tue 02:54:38 PM 38.2642 -99.5453 250° West 417 480 40,000  Level Kansas City Center
Tue 02:55:40 PM 38.2264 -99.6781 250° West 416 479 40,000  Level Kansas City Center
Tue 02:56:42 PM 38.1817 -99.8311 250° West 416 479 40,000  Level Kansas City Center
Tue 02:57:43 PM 38.1436 -99.9631 250° West 415 478 40,000  Level Kansas City Center
Tue 02:58:45 PM 38.0986 -100.1178 250° West 417 480 40,000  Level Kansas City Center
Tue 02:59:47 PM 38.0603 -100.2494 250° West 418 481 40,000  Level Kansas City Center
Tue 03:00:49 PM 38.0219 -100.3792 249° West 414 476 40,000  Level Kansas City Center
Tue 03:01:51 PM 37.9764 -100.5328 249° West 416 479 40,000  Level Kansas City Center
Tue 03:02:53 PM 37.9375 -100.6633 249° West 416 479 40,000  Level Kansas City Center
Tue 03:03:55 PM 37.8844 -100.8081 245° Southwest 411 473 40,000  Level Kansas City Center
Tue 03:04:56 PM 37.8314 -100.9292 241° Southwest 413 475 40,000  Level Kansas City Center
Tue 03:06:35 PM 37.7347 -101.1483 241° Southwest 413 475 40,000  Level Albuquerque Center
Tue 03:07:00 PM 37.7261 -101.1681 241° Southwest 412 474 40,000  Level Kansas City Center
Tue 03:08:02 PM 37.6567 -101.3267 241° Southwest 408 470 40,000  Level Kansas City Center
Tue 03:09:04 PM 37.5964 -101.4647 241° Southwest 405 466 40,000  Level Kansas City Center
Tue 03:10:06 PM 37.5439 -101.5806 240° Southwest 401 461 40,000  Level Kansas City Center
Tue 03:11:08 PM 37.4922 -101.6972 241° Southwest 399 459 40,000  Level Kansas City Center
Tue 03:12:10 PM 37.4319 -101.8336 241° Southwest 400 460 40,000  Level Kansas City Center
Tue 03:12:45 PM 37.3967 -101.9114 240° Southwest 400 460 40,000  Level Albuquerque Center
Tue 03:13:47 PM 37.3456 -102.0286 241° Southwest 400 460 40,000  Level Albuquerque Center
Tue 03:14:49 PM 37.2847 -102.1625 240° Southwest 396 456 40,000  Level Albuquerque Center
Tue 03:15:51 PM 37.2314 -102.2786 240° Southwest 395 455 40,000  Level Albuquerque Center
Tue 03:16:53 PM 37.1811 -102.3944 241° Southwest 395 455 40,000  Level Albuquerque Center
Tue 03:17:54 PM 37.1192 -102.5300 240° Southwest 398 458 40,000  Level Albuquerque Center
Tue 03:18:56 PM 37.0650 -102.6458 240° Southwest 401 461 40,000  Level Albuquerque Center
Tue 03:19:58 PM 37.0031 -102.7814 240° Southwest 402 463 40,000  Level Albuquerque Center
Tue 03:21:00 PM 36.9486 -102.8994 240° Southwest 407 468 40,000  Level Albuquerque Center
Tue 03:22:01 PM 36.8942 -103.0158 240° Southwest 406 467 40,000  Level Albuquerque Center
Tue 03:23:03 PM 36.8314 -103.1519 240° Southwest 405 466 40,000  Level Albuquerque Center
Tue 03:24:05 PM 36.7781 -103.2667 240° Southwest 402 463 40,000  Level Albuquerque Center
Tue 03:25:06 PM 36.7144 -103.4017 240° Southwest 403 464 40,000  Level Albuquerque Center
Tue 03:26:08 PM 36.6606 -103.5183 240° Southwest 404 465 40,000  Level Albuquerque Center
Tue 03:27:10 PM 36.6058 -103.6333 239° Southwest 398 458 40,000  Level Albuquerque Center
Tue 03:28:12 PM 36.5503 -103.7511 240° Southwest 393 452 40,000  Level Albuquerque Center
Tue 03:29:13 PM 36.4853 -103.8892 240° Southwest 393 452 40,000  Level Albuquerque Center
Tue 03:30:15 PM 36.4292 -104.0069 239° Southwest 393 452 40,000  Level Albuquerque Center
Tue 03:31:17 PM 36.3725 -104.1236 239° Southwest 392 451 40,000  Level Albuquerque Center
Tue 03:32:18 PM 36.3169 -104.2369 239° Southwest 387 445 40,000  Level Albuquerque Center
Tue 03:33:20 PM 36.2611 -104.3528 239° Southwest 388 447 40,000 -435 Level Albuquerque Center
Tue 03:34:22 PM 36.2189 -104.4756 247° West 387 445 39,100 -878 Descending Albuquerque Center
Tue 03:35:23 PM 36.1783 -104.5956 247° West 380 437 38,200 -927 Descending Albuquerque Center
Tue 03:36:25 PM 36.1369 -104.7172 247° West 380 437 37,200 -581 Descending Albuquerque Center
Tue 03:37:27 PM 36.0889 -104.8597 247° West 383 441 37,000 -97 Descending Albuquerque Center
Tue 03:38:29 PM 36.0453 -104.9839 247° West 388 447 37,000  Level Albuquerque Center
Tue 03:39:30 PM 36.0022 -105.1058 246° West 386 444 37,000  Level Albuquerque Center
Tue 03:40:32 PM 35.9606 -105.2286 247° West 386 444 37,000 -145 Level Albuquerque Center
Tue 03:41:34 PM 35.9175 -105.3519 247° West 388 447 36,700 -634 Descending Albuquerque Center
Tue 03:42:35 PM 35.8750 -105.4756 247° West 389 448 35,700 -1,220 Descending Albuquerque Center
Tue 03:43:37 PM 35.8344 -105.5892 246° West 391 450 34,200 -1,984 Descending Albuquerque Center
Tue 03:44:39 PM 35.7842 -105.7331 247° West 384 442 31,600 -2,274 Descending Albuquerque Center
Tue 03:45:41 PM 35.7442 -105.8481 247° West 372 428 29,500 -2,000 Descending Albuquerque Center
Tue 03:46:42 PM 35.7044 -105.9592 246° West 360 414 27,500 -1,951 Descending Albuquerque Center
Tue 03:47:44 PM 35.6672 -106.0681 247° West 351 404 25,500 -1,839 Descending Albuquerque Center
Tue 03:48:46 PM 35.6353 -106.1722 249° West 334 384 23,700 -1,756 Descending Albuquerque Center
Tue 03:49:47 PM 35.6244 -106.2800 263° West 322 371 21,900 -1,914 Descending Albuquerque Center
Tue 03:50:42 PM 35.6108 -106.3947 262° West 316 364 20,000 -1,984 Descending Albuquerque Center
Tue 03:51:51 PM 35.5986 -106.5131 263° West 312 359 17,800 -2,033 Descending Albuquerque Center
Tue 03:52:43 PM 35.5292 -106.5389 197° South 326 375 15,900 -1,821 Descending Albuquerque Center
Tue 03:53:43 PM 35.4475 -106.5836 204° Southwest 326 375 14,400 -1,512 Descending Albuquerque Center
Tue 03:54:50 PM 35.3583 -106.6356 205° Southwest 308 354 12,700 -1,359 Descending Albuquerque Center
Tue 03:55:51 PM 35.2786 -106.6667 198° South 296 341 11,500 -1,339 Descending Albuquerque Center
Tue 03:56:51 PM 35.2039 -106.6911 195° South 273 314 10,000 -1,385 Descending Albuquerque Center
Tue 03:58:01 PM 35.1369 -106.7122 194° South 264 304 8,500 -1,043 Descending Albuquerque Center
Tue 03:58:46 PM 35.0831 -106.7197 186° South 208 239 8,000 -581 Descending Albuquerque Center
Tue 03:59:03 PM 35.0764 -106.7175 165° South 233 268 7,900 -1,082 Descending Albuquerque Center
Tue 03:59:47 PM 35.0436 -106.7011 158° South 155 178 6,900 -1,548 Descending Albuquerque Center
Tue 04:00:05 PM 35.0444 -106.6794 87° East 186 214 6,300 -1,180 Descending Albuquerque Center
Tue 04:00:48 PM 35.0442 -106.6439 91° East 150 173 5,700 -774 Descending Albuquerque Center
Tue 04:01:07 PM 35.0447 -106.6283 87° East 164 189 5,500 -632 Descending Albuquerque Center
Tue 04:03:00 PM 35.0402 -106.6092 90° East  Level Estimated

Login

Don't have an account? Register now (free) for customized features, flight alerts, and more!